Fernandes Tourinho, Brazil
Current Conditions -  °F | °C
As of 7:00 AM on Tuesday 21 Oct 2014 (Local Time) from SBIP Reporting Station
Drizzle Drizzle  
Wind Chill: 72°   Ceiling: 1000
Heat Index: 72°   Visibility: 0.93mi
Dew Point: 70°   Wind: 2mph
Humidity: 94%   Direction: 240°WSW
Pressure: 30"   Gusts: NA
Location:  19.15°S, 42.08°W
Report Text: SBIP 210900Z 24002KT 1500 -DZ BR BKN010 BKN020 OVC035 22/21 Q1016
Loading
Personal Weather Stations






























Interactive Weather Map
Tropical Storm Tracking
New forecast layout! Learn more

10-Day Weather Forecast

Advertisements
Track Severe Weather on mobile